Ingunn — PBBX — position and weather

sailwx.info

Track history (hours):
 
Tides and Currents Weather Stations Pressure Air Temp Water Temp Dewpoint Dewpoint Depression Visibility Wind Speed Wind Dir Waves Ship Positions

Ingunn

Last reported at 2017-Oct-22 04:30 UTC. Time now 2017-Oct-22 04:56 UTC.
Position N 40°06' E 018°39'.

Length 95 m; draft 6.4 m.

Type: Cargo ship. MMSI: 244921000.

Date/timePositionNaut miles runAvg speedWind from/ knotsBaromVisibWave heightAir tempDewpointWater temp
2017-Oct-22 04:30N 40°06' E 018°39'510.4
2017-Oct-22 03:59N 40°12' E 018°40'1011.0
2017-Oct-22 03:03N 40°21' E 018°36'211.4
2017-Oct-22 02:50N 40°24' E 018°35'511.2
2017-Oct-22 02:22N 40°28' E 018°32'611.0
2017-Oct-22 01:51N 40°33' E 018°28'511.0
2017-Oct-22 01:26N 40°37' E 018°24'511.1
2017-Oct-22 00:59N 40°41' E 018°21'911.0
2017-Oct-22 00:10N 40°49' E 018°15'310.9
2017-Oct-21 23:52N 40°52' E 018°12'1911.2
2017-Oct-21 22:13N 41°04' E 017°54'27010.8
2017-Oct-20 21:19N 44°38' E 014°10'411.1
2017-Oct-20 21:00N 44°42' E 014°09'4 8.9
2017-Oct-20 20:31N 44°46' E 014°09'910.8
2017-Oct-20 19:39N 44°55' E 014°11'110.9
2017-Oct-20 19:30N 44°57' E 014°12'1510.9
2017-Oct-20 18:08N 45°11' E 014°17'211.1
2017-Oct-20 17:57N 45°13' E 014°18'511.1
2017-Oct-20 17:29N 45°17' E 014°23'  
2017-Oct-17 03:13N 45°19' E 014°24'1 5.8
2017-Oct-17 02:59N 45°18' E 014°23'4 9.3
2017-Oct-17 02:30N 45°14' E 014°20'510.1
2017-Oct-17 02:00N 45°10' E 014°17'610.5
2017-Oct-17 01:27N 45°04' E 014°15'610.0
2017-Oct-17 00:51N 44°58' E 014°13'3 9.8
2017-Oct-17 00:30N 44°55' E 014°11'5 9.9
2017-Oct-17 00:00N 44°51' E 014°07'5 9.5
2017-Oct-16 23:30N 44°47' E 014°04'4 8.8
2017-Oct-16 23:00N 44°44' E 013°60'5 9.3
2017-Oct-16 22:26N 44°44' E 013°52'4 9.6
2017-Oct-16 21:59N 44°46' E 013°47'510.0
2017-Oct-16 21:30N 44°49' E 013°41'5 9.3
2017-Oct-16 21:00N 44°52' E 013°37'5 9.6
2017-Oct-16 20:30N 44°57' E 013°35'5 9.8
2017-Oct-16 20:00N 45°01' E 013°33'510.0
2017-Oct-16 19:27N 45°06' E 013°30'510.0
2017-Oct-16 19:00N 45°11' E 013°27'5 9.9
2017-Oct-16 18:30N 45°15' E 013°25'510.3
2017-Oct-16 18:00N 45°20' E 013°23'611.2
2017-Oct-16 17:30N 45°25' E 013°20'511.0
2017-Oct-16 17:00N 45°30' E 013°17'511.0
2017-Oct-16 16:30N 45°36' E 013°16'510.6
2017-Oct-16 16:00N 45°41' E 013°15'3 6.9
2017-Oct-16 15:30N 45°45' E 013°15'3 5.4
2017-Oct-16 15:00N 45°47' E 013°14'0 0.9
2017-Oct-16 14:29N 45°48' E 013°14'0 0.0
2017-Oct-16 13:29N 45°48' E 013°14'0 0.0
2017-Oct-16 12:53N 45°48' E 013°14'0 0.0
2017-Oct-16 12:29N 45°48' E 013°14'0 0.0
2017-Oct-16 11:59N 45°48' E 013°14'0 0.0
2017-Oct-16 11:29N 45°48' E 013°14'0 0.0
2017-Oct-16 10:53N 45°48' E 013°14'0 0.0
2017-Oct-16 10:14N 45°48' E 013°14'0 0.0
2017-Oct-16 09:50N 45°48' E 013°14'0 0.0
2017-Oct-16 09:26N 45°48' E 013°14'0 0.0
2017-Oct-16 08:53N 45°48' E 013°14'0 0.0
2017-Oct-16 08:29N 45°48' E 013°14'0 0.0
2017-Oct-16 07:41N 45°48' E 013°14'0 0.0
2017-Oct-16 07:29N 45°48' E 013°14'0 0.0
2017-Oct-16 06:56N 45°48' E 013°14'0 0.0
2017-Oct-16 06:29N 45°48' E 013°14'0 0.6
2017-Oct-16 06:00N 45°47' E 013°14'3 6.5
2017-Oct-16 05:30N 45°44' E 013°15'3 6.5
2017-Oct-16 05:00N 45°41' E 013°16'3 4.5
2017-Oct-16 04:24N 45°39' E 013°17'0 0.1
2017-Oct-16 03:39N 45°38' E 013°17'0 0.0
2017-Oct-16 03:26N 45°38' E 013°17'0 0.0
2017-Oct-16 02:56N 45°38' E 013°17'0 0.0
2017-Oct-16 02:29N 45°38' E 013°17'0 0.0
2017-Oct-16 01:59N 45°38' E 013°17'0 0.0
2017-Oct-16 01:14N 45°38' E 013°17'0 0.1
2017-Oct-16 00:59N 45°38' E 013°17'0 0.1
2017-Oct-16 00:29N 45°38' E 013°17'0 0.0
2017-Oct-15 23:59N 45°38' E 013°17'0 0.0
2017-Oct-15 23:29N 45°38' E 013°17'0 0.0
2017-Oct-15 22:59N 45°38' E 013°17'0 0.0
2017-Oct-15 22:29N 45°38' E 013°17'0 0.0
2017-Oct-15 21:44N 45°38' E 013°17'0 0.0
2017-Oct-15 21:26N 45°38' E 013°17'0 0.0
2017-Oct-15 20:59N 45°38' E 013°17'0 0.0
2017-Oct-15 20:26N 45°38' E 013°17'0 0.0
2017-Oct-15 19:50N 45°38' E 013°17'0 0.0
2017-Oct-15 19:29N 45°38' E 013°17'0 0.0
2017-Oct-15 18:59N 45°39' E 013°17'0 0.0
2017-Oct-15 18:29N 45°39' E 013°17'0 0.0
2017-Oct-15 17:59N 45°39' E 013°17'0 0.0
2017-Oct-15 17:29N 45°39' E 013°17'0 0.0
2017-Oct-15 16:53N 45°39' E 013°17'0 0.0
2017-Oct-15 16:29N 45°39' E 013°17'0 0.0
2017-Oct-15 15:47N 45°39' E 013°18'0 0.0
2017-Oct-15 15:26N 45°39' E 013°18'0 0.0
2017-Oct-15 14:53N 45°39' E 013°18'0 0.0
2017-Oct-15 13:47N 45°39' E 013°17'0 0.1
2017-Oct-15 13:29N 45°39' E 013°17'0 0.0
2017-Oct-15 12:59N 45°39' E 013°17'0 0.0
2017-Oct-15 12:29N 45°38' E 013°17'0 0.0
2017-Oct-15 11:59N 45°38' E 013°17'0 0.0
2017-Oct-15 11:26N 45°38' E 013°17'0 0.1
2017-Oct-15 10:59N 45°38' E 013°17'0 0.1
2017-Oct-15 10:29N 45°38' E 013°17'0 0.0
2017-Oct-15 09:59N 45°38' E 013°17'0 0.0
2017-Oct-15 09:29N 45°38' E 013°17'0 0.0
2017-Oct-15 08:59N 45°38' E 013°17'0 0.0
2017-Oct-15 08:29N 45°38' E 013°18'0 0.1
2017-Oct-15 07:56N 45°38' E 013°18'0 0.0
2017-Oct-15 07:14N 45°39' E 013°18'0 0.0
2017-Oct-15 06:50N 45°39' E 013°18'0 0.1
2017-Oct-15 06:29N 45°39' E 013°17'0 0.0
2017-Oct-15 05:59N 45°39' E 013°17'0 0.0
2017-Oct-15 05:29N 45°39' E 013°17'0 0.0
2017-Oct-15 04:56N 45°39' E 013°17'0 0.0
2017-Oct-15 04:26N 45°39' E 013°17'0 0.0
2017-Oct-15 03:56N 45°39' E 013°17'0 0.0
2017-Oct-15 03:26N 45°39' E 013°17'0 0.0
2017-Oct-15 02:53N 45°39' E 013°17'0 0.1
2017-Oct-15 02:29N 45°38' E 013°17'0 0.1
2017-Oct-15 01:56N 45°38' E 013°17'0 0.1
2017-Oct-15 01:29N 45°38' E 013°17'0 0.0
2017-Oct-15 00:50N 45°38' E 013°17'0 0.0
2017-Oct-15 00:17N 45°38' E 013°17'0 0.1
2017-Oct-14 23:56N 45°38' E 013°17'0 0.0
2017-Oct-14 23:20N 45°38' E 013°17'0 0.0
2017-Oct-14 22:56N 45°38' E 013°17'0 0.0
2017-Oct-14 22:20N 45°38' E 013°17'0 0.0
2017-Oct-14 21:59N 45°38' E 013°17'0 0.0
2017-Oct-14 21:29N 45°38' E 013°17'0 0.0
2017-Oct-14 20:59N 45°38' E 013°17'0 0.0
2017-Oct-14 20:29N 45°38' E 013°17'0 0.0
2017-Oct-14 19:59N 45°38' E 013°17'0 0.0
2017-Oct-14 19:17N 45°38' E 013°17'0 1.0
2017-Oct-14 19:00N 45°38' E 013°17'5 9.8
2017-Oct-14 18:30N 45°34' E 013°15'611.4
2017-Oct-14 18:00N 45°28' E 013°14'611.3
2017-Oct-14 17:30N 45°23' E 013°14'611.2
2017-Oct-14 17:00N 45°17' E 013°15'611.2
2017-Oct-14 16:30N 45°11' E 013°16'611.4
2017-Oct-14 16:00N 45°06' E 013°19'611.2
2017-Oct-14 15:30N 45°01' E 013°21'611.1
2017-Oct-14 15:00N 44°56' E 013°25'611.3
2017-Oct-14 14:30N 44°51' E 013°30'611.3
2017-Oct-14 14:00N 44°47' E 013°34'611.1
2017-Oct-14 13:30N 44°42' E 013°39'611.1
2017-Oct-14 13:00N 44°38' E 013°44'511.0
2017-Oct-14 12:30N 44°35' E 013°51'611.2
2017-Oct-14 12:01N 44°34' E 013°58'611.1
2017-Oct-14 11:30N 44°33' E 014°06'611.3
2017-Oct-14 11:00N 44°33' E 014°14'610.8
2017-Oct-14 10:30N 44°33' E 014°22'4 3.6
2017-Oct-14 09:15N 44°32' E 014°28'0 0.0
2017-Oct-14 07:57N 44°32' E 014°28'0 0.0
2017-Oct-14 06:42N 44°32' E 014°28'0 0.0
2017-Oct-14 06:18N 44°32' E 014°28'0 0.0
2017-Oct-14 05:54N 44°32' E 014°28'0 0.0
2017-Oct-14 05:15N 44°32' E 014°28'0 0.0
2017-Oct-14 04:54N 44°32' E 014°28'0 0.0
2017-Oct-14 04:15N 44°32' E 014°28'0 0.0
2017-Oct-14 03:54N 44°32' E 014°28'0 0.0
2017-Oct-14 02:57N 44°32' E 014°28'0 0.0
2017-Oct-14 02:24N 44°32' E 014°28'0 0.0
2017-Oct-14 01:54N 44°32' E 014°28'0 0.0
2017-Oct-14 01:21N 44°32' E 014°28'0 0.0
2017-Oct-14 01:00N 44°32' E 014°28'0 0.0
2017-Oct-14 00:29N 44°32' E 014°28'0 0.0
2017-Oct-13 23:56N 44°32' E 014°28'0 0.0
2017-Oct-13 23:26N 44°32' E 014°28'0 0.0
2017-Oct-13 22:44N 44°32' E 014°28'0 0.0
2017-Oct-13 22:23N 44°32' E 014°28'0 0.0
2017-Oct-13 21:59N 44°32' E 014°28'0 0.0
2017-Oct-13 21:29N 44°32' E 014°28'0 0.0
2017-Oct-13 20:44N 44°32' E 014°28'0 0.0
2017-Oct-13 20:17N 44°32' E 014°28'0 0.0
2017-Oct-13 19:59N 44°32' E 014°28'0 0.0
2017-Oct-13 19:29N 44°32' E 014°28'0 0.0
2017-Oct-13 18:59N 44°32' E 014°28'0 0.0
2017-Oct-13 18:26N 44°32' E 014°28'0 0.0
2017-Oct-13 17:59N 44°32' E 014°28'0 0.0
2017-Oct-13 17:29N 44°32' E 014°28'0 0.0
2017-Oct-13 08:17N 44°32' E 014°28'0 0.0
2017-Oct-13 06:47N 44°32' E 014°28'0 0.0
2017-Oct-13 06:29N 44°32' E 014°28'0 0.0
2017-Oct-13 05:59N 44°32' E 014°28'0 0.0
2017-Oct-13 04:26N 44°32' E 014°28'0 0.0
2017-Oct-13 03:56N 44°32' E 014°28'0 0.0
2017-Oct-13 03:29N 44°32' E 014°28'0 0.0
2017-Oct-13 02:59N 44°32' E 014°28'0 0.0
2017-Oct-13 02:23N 44°32' E 014°28'0 0.0
2017-Oct-13 01:53N 44°32' E 014°28'0 0.0
2017-Oct-13 01:20N 44°32' E 014°28'0 0.0
2017-Oct-13 00:59N 44°32' E 014°28'0 0.0
2017-Oct-13 00:29N 44°32' E 014°28'0 0.0
2017-Oct-12 23:59N 44°32' E 014°28'0 0.0
2017-Oct-12 23:26N 44°32' E 014°28'0 0.0
2017-Oct-12 22:59N 44°32' E 014°28'0 0.0
2017-Oct-12 22:29N 44°32' E 014°28'0 0.0
2017-Oct-12 09:55N 44°32' E 014°28'0 0.0
2017-Oct-12 07:22N 44°32' E 014°28'  
Track history (hours):
 
Tides and Currents Weather Stations Pressure Air Temp Water Temp Dewpoint Dewpoint Depression Visibility Wind Speed Wind Dir Waves Ship Positions

Ingunn

Last reported at 2017-Oct-22 04:30 UTC. Time now 2017-Oct-22 04:56 UTC.
Position N 40°06' E 018°39'.

Length 95 m; draft 6.4 m.

Type: Cargo ship. MMSI: 244921000.

Date/timePositionNaut miles runAvg speedWind from/ knotsBaromVisibWave heightAir tempDewpointWater temp
2017-Oct-22 04:30N 40°06' E 018°39'510.4
2017-Oct-22 03:59N 40°12' E 018°40'1011.0
2017-Oct-22 03:03N 40°21' E 018°36'211.4
2017-Oct-22 02:50N 40°24' E 018°35'511.2
2017-Oct-22 02:22N 40°28' E 018°32'611.0
2017-Oct-22 01:51N 40°33' E 018°28'511.0
2017-Oct-22 01:26N 40°37' E 018°24'511.1
2017-Oct-22 00:59N 40°41' E 018°21'911.0
2017-Oct-22 00:10N 40°49' E 018°15'310.9
2017-Oct-21 23:52N 40°52' E 018°12'1911.2
2017-Oct-21 22:13N 41°04' E 017°54'27010.8
2017-Oct-20 21:19N 44°38' E 014°10'411.1
2017-Oct-20 21:00N 44°42' E 014°09'4 8.9
2017-Oct-20 20:31N 44°46' E 014°09'910.8
2017-Oct-20 19:39N 44°55' E 014°11'110.9
2017-Oct-20 19:30N 44°57' E 014°12'1510.9
2017-Oct-20 18:08N 45°11' E 014°17'211.1
2017-Oct-20 17:57N 45°13' E 014°18'511.1
2017-Oct-20 17:29N 45°17' E 014°23'  
2017-Oct-17 03:13N 45°19' E 014°24'1 5.8
2017-Oct-17 02:59N 45°18' E 014°23'4 9.3
2017-Oct-17 02:30N 45°14' E 014°20'510.1
2017-Oct-17 02:00N 45°10' E 014°17'610.5
2017-Oct-17 01:27N 45°04' E 014°15'610.0
2017-Oct-17 00:51N 44°58' E 014°13'3 9.8
2017-Oct-17 00:30N 44°55' E 014°11'5 9.9
2017-Oct-17 00:00N 44°51' E 014°07'5 9.5
2017-Oct-16 23:30N 44°47' E 014°04'4 8.8
2017-Oct-16 23:00N 44°44' E 013°60'5 9.3
2017-Oct-16 22:26N 44°44' E 013°52'4 9.6
2017-Oct-16 21:59N 44°46' E 013°47'510.0
2017-Oct-16 21:30N 44°49' E 013°41'5 9.3
2017-Oct-16 21:00N 44°52' E 013°37'5 9.6
2017-Oct-16 20:30N 44°57' E 013°35'5 9.8
2017-Oct-16 20:00N 45°01' E 013°33'510.0
2017-Oct-16 19:27N 45°06' E 013°30'510.0
2017-Oct-16 19:00N 45°11' E 013°27'5 9.9
2017-Oct-16 18:30N 45°15' E 013°25'510.3
2017-Oct-16 18:00N 45°20' E 013°23'611.2
2017-Oct-16 17:30N 45°25' E 013°20'511.0
2017-Oct-16 17:00N 45°30' E 013°17'511.0
2017-Oct-16 16:30N 45°36' E 013°16'510.6
2017-Oct-16 16:00N 45°41' E 013°15'3 6.9
2017-Oct-16 15:30N 45°45' E 013°15'3 5.4
2017-Oct-16 15:00N 45°47' E 013°14'0 0.9
2017-Oct-16 14:29N 45°48' E 013°14'0 0.0
2017-Oct-16 13:29N 45°48' E 013°14'0 0.0
2017-Oct-16 12:53N 45°48' E 013°14'0 0.0
2017-Oct-16 12:29N 45°48' E 013°14'0 0.0
2017-Oct-16 11:59N 45°48' E 013°14'0 0.0
2017-Oct-16 11:29N 45°48' E 013°14'0 0.0
2017-Oct-16 10:53N 45°48' E 013°14'0 0.0
2017-Oct-16 10:14N 45°48' E 013°14'0 0.0
2017-Oct-16 09:50N 45°48' E 013°14'0 0.0
2017-Oct-16 09:26N 45°48' E 013°14'0 0.0
2017-Oct-16 08:53N 45°48' E 013°14'0 0.0
2017-Oct-16 08:29N 45°48' E 013°14'0 0.0
2017-Oct-16 07:41N 45°48' E 013°14'0 0.0
2017-Oct-16 07:29N 45°48' E 013°14'0 0.0
2017-Oct-16 06:56N 45°48' E 013°14'0 0.0
2017-Oct-16 06:29N 45°48' E 013°14'0 0.6
2017-Oct-16 06:00N 45°47' E 013°14'3 6.5
2017-Oct-16 05:30N 45°44' E 013°15'3 6.5
2017-Oct-16 05:00N 45°41' E 013°16'3 4.5
2017-Oct-16 04:24N 45°39' E 013°17'0 0.1
2017-Oct-16 03:39N 45°38' E 013°17'0 0.0
2017-Oct-16 03:26N 45°38' E 013°17'0 0.0
2017-Oct-16 02:56N 45°38' E 013°17'0 0.0
2017-Oct-16 02:29N 45°38' E 013°17'0 0.0
2017-Oct-16 01:59N 45°38' E 013°17'0 0.0
2017-Oct-16 01:14N 45°38' E 013°17'0 0.1
2017-Oct-16 00:59N 45°38' E 013°17'0 0.1
2017-Oct-16 00:29N 45°38' E 013°17'0 0.0
2017-Oct-15 23:59N 45°38' E 013°17'0 0.0
2017-Oct-15 23:29N 45°38' E 013°17'0 0.0
2017-Oct-15 22:59N 45°38' E 013°17'0 0.0
2017-Oct-15 22:29N 45°38' E 013°17'0 0.0
2017-Oct-15 21:44N 45°38' E 013°17'0 0.0
2017-Oct-15 21:26N 45°38' E 013°17'0 0.0
2017-Oct-15 20:59N 45°38' E 013°17'0 0.0
2017-Oct-15 20:26N 45°38' E 013°17'0 0.0
2017-Oct-15 19:50N 45°38' E 013°17'0 0.0
2017-Oct-15 19:29N 45°38' E 013°17'0 0.0
2017-Oct-15 18:59N 45°39' E 013°17'0 0.0
2017-Oct-15 18:29N 45°39' E 013°17'0 0.0
2017-Oct-15 17:59N 45°39' E 013°17'0 0.0
2017-Oct-15 17:29N 45°39' E 013°17'0 0.0
2017-Oct-15 16:53N 45°39' E 013°17'0 0.0
2017-Oct-15 16:29N 45°39' E 013°17'0 0.0
2017-Oct-15 15:47N 45°39' E 013°18'0 0.0
2017-Oct-15 15:26N 45°39' E 013°18'0 0.0
2017-Oct-15 14:53N 45°39' E 013°18'0 0.0
2017-Oct-15 13:47N 45°39' E 013°17'0 0.1
2017-Oct-15 13:29N 45°39' E 013°17'0 0.0
2017-Oct-15 12:59N 45°39' E 013°17'0 0.0
2017-Oct-15 12:29N 45°38' E 013°17'0 0.0
2017-Oct-15 11:59N 45°38' E 013°17'0 0.0
2017-Oct-15 11:26N 45°38' E 013°17'0 0.1
2017-Oct-15 10:59N 45°38' E 013°17'0 0.1
2017-Oct-15 10:29N 45°38' E 013°17'0 0.0
2017-Oct-15 09:59N 45°38' E 013°17'0 0.0
2017-Oct-15 09:29N 45°38' E 013°17'0 0.0
2017-Oct-15 08:59N 45°38' E 013°17'0 0.0
2017-Oct-15 08:29N 45°38' E 013°18'0 0.1
2017-Oct-15 07:56N 45°38' E 013°18'0 0.0
2017-Oct-15 07:14N 45°39' E 013°18'0 0.0
2017-Oct-15 06:50N 45°39' E 013°18'0 0.1
2017-Oct-15 06:29N 45°39' E 013°17'0 0.0
2017-Oct-15 05:59N 45°39' E 013°17'0 0.0
2017-Oct-15 05:29N 45°39' E 013°17'0 0.0
2017-Oct-15 04:56N 45°39' E 013°17'0 0.0
2017-Oct-15 04:26N 45°39' E 013°17'0 0.0
2017-Oct-15 03:56N 45°39' E 013°17'0 0.0
2017-Oct-15 03:26N 45°39' E 013°17'0 0.0
2017-Oct-15 02:53N 45°39' E 013°17'0 0.1
2017-Oct-15 02:29N 45°38' E 013°17'0 0.1
2017-Oct-15 01:56N 45°38' E 013°17'0 0.1
2017-Oct-15 01:29N 45°38' E 013°17'0 0.0
2017-Oct-15 00:50N 45°38' E 013°17'0 0.0
2017-Oct-15 00:17N 45°38' E 013°17'0 0.1
2017-Oct-14 23:56N 45°38' E 013°17'0 0.0
2017-Oct-14 23:20N 45°38' E 013°17'0 0.0
2017-Oct-14 22:56N 45°38' E 013°17'0 0.0
2017-Oct-14 22:20N 45°38' E 013°17'0 0.0
2017-Oct-14 21:59N 45°38' E 013°17'0 0.0
2017-Oct-14 21:29N 45°38' E 013°17'0 0.0
2017-Oct-14 20:59N 45°38' E 013°17'0 0.0
2017-Oct-14 20:29N 45°38' E 013°17'0 0.0
2017-Oct-14 19:59N 45°38' E 013°17'0 0.0
2017-Oct-14 19:17N 45°38' E 013°17'0 1.0
2017-Oct-14 19:00N 45°38' E 013°17'5 9.8
2017-Oct-14 18:30N 45°34' E 013°15'611.4
2017-Oct-14 18:00N 45°28' E 013°14'611.3
2017-Oct-14 17:30N 45°23' E 013°14'611.2
2017-Oct-14 17:00N 45°17' E 013°15'611.2
2017-Oct-14 16:30N 45°11' E 013°16'611.4
2017-Oct-14 16:00N 45°06' E 013°19'611.2
2017-Oct-14 15:30N 45°01' E 013°21'611.1
2017-Oct-14 15:00N 44°56' E 013°25'611.3
2017-Oct-14 14:30N 44°51' E 013°30'611.3
2017-Oct-14 14:00N 44°47' E 013°34'611.1
2017-Oct-14 13:30N 44°42' E 013°39'611.1
2017-Oct-14 13:00N 44°38' E 013°44'511.0
2017-Oct-14 12:30N 44°35' E 013°51'611.2
2017-Oct-14 12:01N 44°34' E 013°58'611.1
2017-Oct-14 11:30N 44°33' E 014°06'611.3
2017-Oct-14 11:00N 44°33' E 014°14'610.8
2017-Oct-14 10:30N 44°33' E 014°22'4 3.6
2017-Oct-14 09:15N 44°32' E 014°28'0 0.0
2017-Oct-14 07:57N 44°32' E 014°28'0 0.0
2017-Oct-14 06:42N 44°32' E 014°28'0 0.0
2017-Oct-14 06:18N 44°32' E 014°28'0 0.0
2017-Oct-14 05:54N 44°32' E 014°28'0 0.0
2017-Oct-14 05:15N 44°32' E 014°28'0 0.0
2017-Oct-14 04:54N 44°32' E 014°28'0 0.0
2017-Oct-14 04:15N 44°32' E 014°28'0 0.0
2017-Oct-14 03:54N 44°32' E 014°28'0 0.0
2017-Oct-14 02:57N 44°32' E 014°28'0 0.0
2017-Oct-14 02:24N 44°32' E 014°28'0 0.0
2017-Oct-14 01:54N 44°32' E 014°28'0 0.0
2017-Oct-14 01:21N 44°32' E 014°28'0 0.0
2017-Oct-14 01:00N 44°32' E 014°28'0 0.0
2017-Oct-14 00:29N 44°32' E 014°28'0 0.0
2017-Oct-13 23:56N 44°32' E 014°28'0 0.0
2017-Oct-13 23:26N 44°32' E 014°28'0 0.0
2017-Oct-13 22:44N 44°32' E 014°28'0 0.0
2017-Oct-13 22:23N 44°32' E 014°28'0 0.0
2017-Oct-13 21:59N 44°32' E 014°28'0 0.0
2017-Oct-13 21:29N 44°32' E 014°28'0 0.0
2017-Oct-13 20:44N 44°32' E 014°28'0 0.0
2017-Oct-13 20:17N 44°32' E 014°28'0 0.0
2017-Oct-13 19:59N 44°32' E 014°28'0 0.0
2017-Oct-13 19:29N 44°32' E 014°28'0 0.0
2017-Oct-13 18:59N 44°32' E 014°28'0 0.0
2017-Oct-13 18:26N 44°32' E 014°28'0 0.0
2017-Oct-13 17:59N 44°32' E 014°28'0 0.0
2017-Oct-13 17:29N 44°32' E 014°28'0 0.0
2017-Oct-13 08:17N 44°32' E 014°28'0 0.0
2017-Oct-13 06:47N 44°32' E 014°28'0 0.0
2017-Oct-13 06:29N 44°32' E 014°28'0 0.0
2017-Oct-13 05:59N 44°32' E 014°28'0 0.0
2017-Oct-13 04:26N 44°32' E 014°28'0 0.0
2017-Oct-13 03:56N 44°32' E 014°28'0 0.0
2017-Oct-13 03:29N 44°32' E 014°28'0 0.0
2017-Oct-13 02:59N 44°32' E 014°28'0 0.0
2017-Oct-13 02:23N 44°32' E 014°28'0 0.0
2017-Oct-13 01:53N 44°32' E 014°28'0 0.0
2017-Oct-13 01:20N 44°32' E 014°28'0 0.0
2017-Oct-13 00:59N 44°32' E 014°28'0 0.0
2017-Oct-13 00:29N 44°32' E 014°28'0 0.0
2017-Oct-12 23:59N 44°32' E 014°28'0 0.0
2017-Oct-12 23:26N 44°32' E 014°28'0 0.0
2017-Oct-12 22:59N 44°32' E 014°28'0 0.0
2017-Oct-12 22:29N 44°32' E 014°28'0 0.0
2017-Oct-12 09:55N 44°32' E 014°28'0 0.0
2017-Oct-12 07:22N 44°32' E 014°28'  

Dump ship's entire track history